createdAt,value
2022-08-07T00:02:39.939Z,87909.34
2022-08-07T00:04:59.420Z,87912.88
2022-08-07T00:07:27.524Z,87917.84
2022-08-07T00:10:26.618Z,87919.75
2022-08-07T00:12:57.908Z,87912.94
2022-08-07T00:15:38.663Z,87924.81
2022-08-07T00:18:24.129Z,87923.63
2022-08-07T00:21:08.111Z,87916.41
2022-08-07T00:23:53.118Z,87914.50
2022-08-07T00:26:49.490Z,87916.72
2022-08-07T00:29:07.550Z,87919.38
2022-08-07T00:31:37.458Z,87913.22
2022-08-07T00:34:08.808Z,87910.97
2022-08-07T00:36:43.237Z,87918.94
2022-08-07T00:39:16.945Z,87909.81
2022-08-07T00:42:05.180Z,87912.88
2022-08-07T00:44:34.547Z,87896.13
2022-08-07T00:47:03.924Z,87895.38
2022-08-07T00:50:21.170Z,87898.81
2022-08-07T00:52:21.174Z,87897.69
2022-08-07T00:54:53.715Z,87888.50
2022-08-07T00:57:26.235Z,87891.59
2022-08-07T00:59:54.163Z,87886.25
2022-08-07T01:02:28.550Z,87893.84
2022-08-07T01:04:58.540Z,87889.34
2022-08-07T01:07:29.547Z,87882.81
2022-08-07T01:10:06.873Z,87892.75
2022-08-07T01:12:53.118Z,87874.06
2022-08-07T01:15:35.684Z,87875.63
2022-08-07T01:18:11.503Z,87877.91
2022-08-07T01:21:22.466Z,87876.38
2022-08-07T01:23:52.256Z,87877.19
2022-08-07T01:26:21.559Z,87877.56
2022-08-07T01:28:54.006Z,87863.47
2022-08-07T01:31:22.977Z,87867.22
2022-08-07T01:33:55.212Z,87872.59
2022-08-07T01:36:33.522Z,87873.44
2022-08-07T01:39:01.769Z,87860.44
2022-08-07T01:41:38.481Z,87866.91
2022-08-07T01:44:06.535Z,87857.41
2022-08-07T01:46:34.748Z,87858.63
2022-08-07T01:49:03.006Z,87858.66
2022-08-07T01:52:01.843Z,87863.66
2022-08-07T01:54:32.799Z,87863.72
2022-08-07T01:57:24.723Z,87865.63
2022-08-07T02:00:13.474Z,87867.09
2022-08-07T02:03:18.581Z,87870.59
2022-08-07T02:05:58.483Z,87866.41
2022-08-07T02:08:30.626Z,87869.84
2022-08-07T02:11:01.042Z,87867.56
2022-08-07T02:13:56.684Z,87870.69
2022-08-07T02:16:28.677Z,87863.09
2022-08-07T02:20:04.155Z,87866.19
2022-08-07T02:21:58.665Z,87867.69
2022-08-07T02:24:29.959Z,87868.50
2022-08-07T02:27:02.573Z,87862.00
2022-08-07T02:29:36.903Z,87854.44
2022-08-07T02:32:12.540Z,87848.75
2022-08-07T02:34:48.682Z,87848.38
2022-08-07T02:37:21.861Z,87852.59
2022-08-07T02:40:02.053Z,87845.41
2022-08-07T02:42:39.616Z,87844.63
2022-08-07T02:45:59.234Z,87840.47
2022-08-07T02:48:01.591Z,87846.19
2022-08-07T02:50:31.029Z,87841.63
2022-08-07T02:53:15.359Z,87850.44
2022-08-07T02:56:03.082Z,87842.81
2022-08-07T02:58:36.700Z,87843.22
2022-08-07T03:01:18.436Z,87840.56
2022-08-07T03:03:49.644Z,87841.72
2022-08-07T03:06:32.166Z,87845.53
2022-08-07T03:09:04.072Z,87841.75
2022-08-07T03:11:38.356Z,87836.38
2022-08-07T03:14:07.838Z,87833.72
2022-08-07T03:16:36.308Z,87835.25
2022-08-07T03:19:06.405Z,87836.72
2022-08-07T03:21:35.842Z,87841.31
2022-08-07T03:24:20.400Z,87846.25
2022-08-07T03:26:59.173Z,87849.69
2022-08-07T03:29:44.674Z,87856.22
2022-08-07T03:32:23.003Z,87857.00
2022-08-07T03:35:16.703Z,87858.94
2022-08-07T03:37:53.550Z,87854.75
2022-08-07T03:40:30.777Z,87860.09
2022-08-07T03:43:13.656Z,87849.06
2022-08-07T03:45:43.530Z,87852.47
2022-08-07T03:48:15.779Z,87845.69
2022-08-07T03:50:55.948Z,87852.50
2022-08-07T03:53:50.048Z,87840.34
2022-08-07T03:56:18.913Z,87842.66
2022-08-07T03:59:12.835Z,87839.66
2022-08-07T04:01:46.046Z,87838.88
2022-08-07T04:04:18.079Z,87838.47
2022-08-07T04:06:46.602Z,87838.47
2022-08-07T04:09:19.985Z,87835.03
2022-08-07T04:12:21.312Z,87841.53
2022-08-07T04:14:43.893Z,87840.44
2022-08-07T04:17:20.223Z,87833.97
2022-08-07T04:19:52.651Z,87837.78
2022-08-07T04:22:27.469Z,87833.97
2022-08-07T04:25:02.062Z,87834.66
2022-08-07T04:27:36.265Z,87833.97
2022-08-07T04:30:35.703Z,87842.38
2022-08-07T04:33:00.737Z,87846.19
2022-08-07T04:35:34.986Z,87850.03
2022-08-07T04:38:11.424Z,87850.38
2022-08-07T04:40:52.160Z,87854.53
2022-08-07T04:44:10.003Z,87856.81
2022-08-07T04:47:03.797Z,87855.31
2022-08-07T04:50:04.387Z,87850.75
2022-08-07T04:53:27.674Z,87853.47
2022-08-07T04:58:15.111Z,87850.47
2022-08-07T05:00:11.844Z,87854.59
2022-08-07T05:02:33.899Z,87853.44
2022-08-07T05:05:11.987Z,87853.41
2022-08-07T05:08:06.229Z,87856.00
2022-08-07T05:10:49.254Z,87867.44
2022-08-07T05:14:53.264Z,87862.06
2022-08-07T05:16:31.762Z,87866.66
2022-08-07T05:19:10.389Z,87859.00
2022-08-07T05:21:59.042Z,87864.28
2022-08-07T05:24:30.436Z,87860.44
2022-08-07T05:27:01.317Z,87860.44
2022-08-07T05:29:39.005Z,87861.19
2022-08-07T05:32:23.118Z,87860.69
2022-08-07T05:34:52.767Z,87859.53
2022-08-07T05:37:25.455Z,87861.38
2022-08-07T05:40:13.723Z,87850.28
2022-08-07T05:42:42.277Z,87858.69
2022-08-07T05:45:46.357Z,87865.88
2022-08-07T05:48:14.652Z,87868.53
2022-08-07T05:50:43.312Z,87862.41
2022-08-07T05:54:08.704Z,87865.44
2022-08-07T05:56:03.551Z,87864.28
2022-08-07T05:58:37.406Z,87873.78
2022-08-07T06:01:10.757Z,87866.91
2022-08-07T06:03:56.307Z,87878.34
2022-08-07T06:06:29.398Z,87878.72
2022-08-07T06:09:01.495Z,87872.28
2022-08-07T06:11:34.467Z,87870.34
2022-08-07T06:14:12.503Z,87866.84
2022-08-07T06:16:50.597Z,87870.28
2022-08-07T06:19:51.966Z,87871.03
2022-08-07T06:22:20.682Z,87871.38
2022-08-07T06:24:55.585Z,87871.28
2022-08-07T06:27:59.754Z,87878.09
2022-08-07T06:30:32.321Z,87870.09
2022-08-07T06:33:03.540Z,87877.31
2022-08-07T06:35:45.628Z,87879.56
2022-08-07T06:38:19.953Z,87872.59
2022-08-07T06:40:55.020Z,87873.69
2022-08-07T06:43:26.753Z,87875.53
2022-08-07T06:46:00.119Z,87864.06
2022-08-07T06:48:28.357Z,87869.31
2022-08-07T06:51:00.164Z,87866.56
2022-08-07T06:55:27.529Z,87866.09
2022-08-07T06:56:28.940Z,87864.88
2022-08-07T07:00:14.349Z,87858.72
2022-08-07T07:01:50.685Z,87856.00
2022-08-07T07:04:32.489Z,87855.91
2022-08-07T07:07:10.411Z,87861.59
2022-08-07T07:09:50.809Z,87860.03
2022-08-07T07:12:33.586Z,87851.13
2022-08-07T07:15:32.486Z,87844.59
2022-08-07T07:18:46.953Z,87837.59
2022-08-07T07:21:20.039Z,87834.81
2022-08-07T07:24:09.264Z,87829.06
2022-08-07T07:26:39.661Z,87833.16
2022-08-07T07:29:40.117Z,87834.56
2022-08-07T07:32:07.193Z,87823.41
2022-08-07T07:34:39.649Z,87827.16
2022-08-07T07:37:21.522Z,87818.69
2022-08-07T07:40:03.463Z,87817.44
2022-08-07T07:42:39.788Z,87816.28
2022-08-07T07:45:10.641Z,87811.22
2022-08-07T07:47:52.801Z,87812.31
2022-08-07T07:50:34.146Z,87812.28
2022-08-07T07:53:20.168Z,87806.53
2022-08-07T07:56:00.661Z,87809.19
2022-08-07T07:58:40.173Z,87816.13
2022-08-07T08:02:03.990Z,87813.66
2022-08-07T08:04:10.511Z,87813.84
2022-08-07T08:06:48.159Z,87812.94
2022-08-07T08:09:24.368Z,87804.44
2022-08-07T08:12:02.245Z,87801.63
2022-08-07T08:14:36.471Z,87791.13
2022-08-07T08:17:55.534Z,87798.72
2022-08-07T08:20:17.859Z,87797.31
2022-08-07T08:22:55.854Z,87796.91
2022-08-07T08:25:41.933Z,87789.13
2022-08-07T08:28:24.055Z,87783.56
2022-08-07T08:31:14.776Z,87792.78
2022-08-07T08:33:49.596Z,87790.28
2022-08-07T08:36:30.609Z,87788.31
2022-08-07T08:39:01.764Z,87781.28
2022-08-07T08:41:58.750Z,87785.38
2022-08-07T08:44:45.852Z,87782.97
2022-08-07T08:47:29.433Z,87786.63
2022-08-07T08:50:28.375Z,87784.53
2022-08-07T08:53:32.809Z,87774.84
2022-08-07T08:56:17.362Z,87780.00
2022-08-07T08:59:12.863Z,87778.34
2022-08-07T09:02:04.302Z,87774.66
2022-08-07T09:05:04.928Z,87772.88
2022-08-07T09:08:02.305Z,87773.84
2022-08-07T09:10:44.229Z,87768.28
2022-08-07T09:13:44.100Z,87766.91
2022-08-07T09:16:34.325Z,87763.94
2022-08-07T09:19:52.811Z,87762.91
2022-08-07T09:24:31.059Z,87758.63
2022-08-07T09:25:54.440Z,87762.78
2022-08-07T09:30:05.875Z,87753.16
2022-08-07T09:32:18.632Z,87756.72
2022-08-07T09:36:04.506Z,87756.75
2022-08-07T09:38:04.895Z,87758.88
2022-08-07T09:40:50.197Z,87746.88
2022-08-07T09:44:05.806Z,87745.94
2022-08-07T09:47:51.148Z,87738.56
2022-08-07T09:51:00.091Z,87740.16
2022-08-07T09:53:41.330Z,87736.53
2022-08-07T09:56:47.828Z,87731.63
2022-08-07T10:00:01.506Z,87734.91
2022-08-07T10:04:05.331Z,87729.47
2022-08-07T10:06:27.485Z,87726.22
2022-08-07T10:09:42.934Z,87722.69
2022-08-07T10:12:39.829Z,87727.75
2022-08-07T10:15:46.724Z,87725.38
2022-08-07T10:18:26.546Z,87716.25
2022-08-07T10:22:14.755Z,87716.56
2022-08-07T10:24:33.353Z,87712.28
2022-08-07T10:27:47.104Z,87706.16
2022-08-07T10:30:43.336Z,87711.28
2022-08-07T10:33:20.048Z,87701.06
2022-08-07T10:36:45.758Z,87695.69
2022-08-07T10:39:25.658Z,87693.53
2022-08-07T10:43:01.921Z,87691.84
2022-08-07T10:45:57.213Z,87691.41
2022-08-07T10:48:36.262Z,87689.22
2022-08-07T10:51:39.712Z,87681.75
2022-08-07T10:54:21.929Z,87673.41
2022-08-07T10:57:04.558Z,87682.41
2022-08-07T10:59:47.451Z,87686.16
2022-08-07T11:02:48.957Z,87677.72
2022-08-07T11:05:50.751Z,87682.81
2022-08-07T11:09:00.072Z,87684.00
2022-08-07T11:12:02.852Z,87680.97
2022-08-07T11:14:59.773Z,87671.03
2022-08-07T11:17:46.407Z,87675.22
2022-08-07T11:20:24.849Z,87670.47
2022-08-07T11:23:20.702Z,87671.75
2022-08-07T11:26:50.068Z,87665.22
2022-08-07T11:29:42.728Z,87661.59
2022-08-07T11:32:34.921Z,87658.25
2022-08-07T11:35:16.620Z,87646.84
2022-08-07T11:38:12.754Z,87657.78
2022-08-07T11:41:06.290Z,87656.28
2022-08-07T11:44:18.686Z,87662.56
2022-08-07T11:47:04.837Z,87655.16
2022-08-07T11:50:30.438Z,87660.34
2022-08-07T11:53:19.080Z,87655.03
2022-08-07T11:56:26.334Z,87658.59
2022-08-07T12:00:10.736Z,87662.59
2022-08-07T12:02:52.509Z,87661.28
2022-08-07T12:05:49.158Z,87661.69
2022-08-07T12:08:52.530Z,87660.97
2022-08-07T12:11:32.609Z,87661.94
2022-08-07T12:14:29.382Z,87659.25
2022-08-07T12:17:05.280Z,87663.91
2022-08-07T12:20:03.134Z,87661.13
2022-08-07T12:23:21.455Z,87658.75
2022-08-07T12:26:41.999Z,87664.88
2022-08-07T12:29:38.301Z,87670.81
2022-08-07T12:32:48.209Z,87674.81
2022-08-07T12:35:19.197Z,87676.75
2022-08-07T12:38:11.188Z,87669.22
2022-08-07T12:40:47.406Z,87666.97
2022-08-07T12:44:02.485Z,87674.91
2022-08-07T12:46:35.440Z,87671.50
2022-08-07T12:49:48.640Z,87678.34
2022-08-07T12:52:19.202Z,87676.53
2022-08-07T12:55:05.632Z,87683.09
2022-08-07T12:58:01.238Z,87677.09
2022-08-07T13:01:17.078Z,87678.91
2022-08-07T13:04:05.218Z,87679.34
2022-08-07T13:07:03.055Z,87681.09
2022-08-07T13:10:28.730Z,87676.09
2022-08-07T13:13:48.111Z,87665.16
2022-08-07T13:16:24.021Z,87669.34
2022-08-07T13:19:50.508Z,87675.06
2022-08-07T13:22:39.454Z,87666.16
2022-08-07T13:25:42.685Z,87675.09
2022-08-07T13:28:48.902Z,87675.66
2022-08-07T13:31:55.013Z,87674.38
2022-08-07T13:34:51.107Z,87679.97
2022-08-07T13:37:55.615Z,87677.16
2022-08-07T13:40:42.672Z,87676.59
2022-08-07T13:43:17.447Z,87672.19
2022-08-07T13:46:20.690Z,87669.63
2022-08-07T13:49:00.969Z,87674.88
2022-08-07T13:52:04.943Z,87677.03
2022-08-07T13:54:23.889Z,87677.03
2022-08-07T13:56:59.613Z,87683.03
2022-08-07T13:59:33.714Z,87679.69
2022-08-07T14:02:14.153Z,87689.88
2022-08-07T14:04:55.275Z,87691.28
2022-08-07T14:07:31.213Z,87684.31
2022-08-07T14:10:20.344Z,87690.00
2022-08-07T14:13:02.691Z,87692.59
2022-08-07T14:15:43.912Z,87687.53
2022-08-07T14:18:32.645Z,87691.72
2022-08-07T14:22:02.110Z,87689.47
2022-08-07T14:24:33.151Z,87686.47
2022-08-07T14:28:09.921Z,87697.06
2022-08-07T14:30:07.653Z,87702.22
2022-08-07T14:32:54.638Z,87710.03
2022-08-07T14:35:43.223Z,87710.56
2022-08-07T14:41:15.018Z,87717.56
2022-08-07T14:43:58.386Z,87722.91
2022-08-07T14:46:36.103Z,87711.00
2022-08-07T14:49:55.889Z,87709.06
2022-08-07T14:54:54.217Z,87717.44
2022-08-07T14:57:54.677Z,87720.50
2022-08-07T15:00:20.784Z,87721.66
2022-08-07T15:03:19.268Z,87729.47
2022-08-07T15:05:54.304Z,87721.84
2022-08-07T15:08:47.608Z,87715.75
2022-08-07T15:13:11.483Z,87712.31
2022-08-07T15:14:25.389Z,87716.91
2022-08-07T15:17:16.648Z,87711.22
2022-08-07T15:20:33.185Z,87698.25
2022-08-07T15:22:55.935Z,87696.44
2022-08-07T15:25:36.835Z,87682.25
2022-08-07T15:28:31.155Z,87676.91
2022-08-07T15:31:05.627Z,87680.41
2022-08-07T15:33:38.501Z,87670.13
2022-08-07T15:36:12.014Z,87670.63
2022-08-07T15:38:58.972Z,87669.91
2022-08-07T15:42:45.919Z,87678.34
2022-08-07T15:44:23.871Z,87678.84
2022-08-07T15:47:08.922Z,87685.47
2022-08-07T15:52:37.881Z,87690.38
2022-08-07T15:55:18.128Z,87685.00
2022-08-07T15:57:54.053Z,87674.72
2022-08-07T16:00:38.521Z,87680.84
2022-08-07T16:03:46.649Z,87682.88
2022-08-07T16:06:14.021Z,87690.22
2022-08-07T16:08:46.452Z,87695.69
2022-08-07T16:12:03.350Z,87695.75
2022-08-07T16:14:37.176Z,87692.84
2022-08-07T16:18:02.030Z,87697.88
2022-08-07T16:20:55.326Z,87704.50
2022-08-07T16:24:34.851Z,87711.09
2022-08-07T16:27:39.774Z,87710.19
2022-08-07T16:30:30.743Z,87710.69
2022-08-07T16:34:03.353Z,87703.41
2022-08-07T16:36:19.855Z,87709.53
2022-08-07T16:39:33.584Z,87711.50
2022-08-07T16:42:43.677Z,87706.97
2022-08-07T16:46:33.663Z,87714.00
2022-08-07T16:50:13.791Z,87712.16
2022-08-07T16:51:57.859Z,87710.75
2022-08-07T16:55:08.269Z,87732.56
2022-08-07T16:58:08.137Z,87738.41
2022-08-07T17:00:51.162Z,87748.78
2022-08-07T17:04:04.210Z,87743.50
2022-08-07T17:07:03.426Z,87752.44
2022-08-07T17:10:08.154Z,87753.25
2022-08-07T17:13:05.327Z,87755.41
2022-08-07T17:16:03.884Z,87748.72
2022-08-07T17:19:02.315Z,87745.78
2022-08-07T17:21:50.884Z,87761.81
2022-08-07T17:24:29.446Z,87753.88
2022-08-07T17:27:29.013Z,87757.38
2022-08-07T17:30:13.939Z,87751.25
2022-08-07T17:34:10.257Z,87747.25
2022-08-07T17:36:13.588Z,87741.47
2022-08-07T17:39:58.458Z,87739.22
2022-08-07T17:42:58.479Z,87743.47
2022-08-07T17:45:39.785Z,87739.81
2022-08-07T17:48:31.809Z,87730.16
2022-08-07T17:52:00.005Z,87725.34
2022-08-07T17:54:29.679Z,87722.34
2022-08-07T17:57:56.523Z,87717.75
2022-08-07T18:00:32.989Z,87705.97
2022-08-07T18:03:18.227Z,87706.41
2022-08-07T18:06:02.292Z,87694.66
2022-08-07T18:09:01.340Z,87694.34
2022-08-07T18:12:17.897Z,87693.31
2022-08-07T18:15:18.914Z,87694.13
2022-08-07T18:18:44.762Z,87694.28
2022-08-07T18:21:40.178Z,87695.13
2022-08-07T18:24:12.135Z,87695.16
2022-08-07T18:27:38.311Z,87693.38
2022-08-07T18:30:31.353Z,87699.97
2022-08-07T18:33:39.505Z,87704.28
2022-08-07T18:37:09.666Z,87720.44
2022-08-07T18:40:18.556Z,87726.66
2022-08-07T18:43:11.411Z,87733.16
2022-08-07T18:46:26.709Z,87750.34
2022-08-07T18:50:30.663Z,87765.63
2022-08-07T18:52:41.007Z,87773.84
2022-08-07T18:55:55.395Z,87788.28
2022-08-07T18:58:53.039Z,87791.91
2022-08-07T19:02:18.366Z,87806.00
2022-08-07T19:05:15.548Z,87811.03
2022-08-07T19:08:07.171Z,87816.38
2022-08-07T19:10:57.605Z,87813.72
2022-08-07T19:13:55.743Z,87818.28
2022-08-07T19:17:06.088Z,87823.63
2022-08-07T19:19:58.671Z,87813.00
2022-08-07T19:22:56.020Z,87815.00
2022-08-07T19:26:23.883Z,87825.66
2022-08-07T19:28:58.313Z,87824.56
2022-08-07T19:31:42.805Z,87820.44
2022-08-07T19:34:06.661Z,87824.59
2022-08-07T19:36:42.598Z,87823.47
2022-08-07T19:39:40.602Z,87817.00
2022-08-07T19:42:24.644Z,87828.06
2022-08-07T19:44:54.096Z,87835.25
2022-08-07T19:47:36.416Z,87831.38
2022-08-07T19:50:44.372Z,87831.72
2022-08-07T19:52:58.397Z,87830.22
2022-08-07T19:55:56.592Z,87835.16
2022-08-07T19:58:28.149Z,87834.78
2022-08-07T20:00:58.145Z,87829.44
2022-08-07T20:03:33.467Z,87819.16
2022-08-07T20:06:03.949Z,87823.72
2022-08-07T20:08:48.917Z,87823.72
2022-08-07T20:11:34.334Z,87824.13
2022-08-07T20:14:20.888Z,87816.19
2022-08-07T20:16:58.996Z,87821.19
2022-08-07T20:19:47.930Z,87812.06
2022-08-07T20:22:34.217Z,87813.22
2022-08-07T20:25:12.896Z,87818.56
2022-08-07T20:27:54.382Z,87814.41
2022-08-07T20:30:36.283Z,87810.28
2022-08-07T20:33:09.123Z,87816.81
2022-08-07T20:36:03.203Z,87816.44
2022-08-07T20:38:33.251Z,87815.34
2022-08-07T20:41:05.474Z,87812.28
2022-08-07T20:43:36.100Z,87810.75
2022-08-07T20:46:26.922Z,87800.50
2022-08-07T20:50:01.161Z,87809.25
2022-08-07T20:51:50.869Z,87804.31
2022-08-07T20:54:29.824Z,87802.81
2022-08-07T20:57:08.299Z,87803.59
2022-08-07T21:00:06.580Z,87802.91
2022-08-07T21:02:30.684Z,87806.00
2022-08-07T21:05:01.954Z,87805.22
2022-08-07T21:07:38.776Z,87801.38
2022-08-07T21:10:13.433Z,87800.31
2022-08-07T21:12:47.190Z,87807.53
2022-08-07T21:15:18.878Z,87803.00
2022-08-07T21:18:03.737Z,87806.09
2022-08-07T21:20:41.916Z,87807.56
2022-08-07T21:23:36.559Z,87798.44
2022-08-07T21:26:31.130Z,87800.75
2022-08-07T21:29:17.946Z,87804.56
2022-08-07T21:32:46.568Z,87797.31
2022-08-07T21:35:34.799Z,87804.19
2022-08-07T21:38:27.850Z,87814.09
2022-08-07T21:41:22.566Z,87812.91
2022-08-07T21:44:14.240Z,87809.88
2022-08-07T21:47:37.872Z,87797.31
2022-08-07T21:50:31.995Z,87809.13
2022-08-07T21:53:12.206Z,87811.06
2022-08-07T21:56:05.845Z,87808.06
2022-08-07T22:00:05.099Z,87806.19
2022-08-07T22:02:59.113Z,87812.72
2022-08-07T22:05:45.964Z,87815.38
2022-08-07T22:08:19.973Z,87801.28
2022-08-07T22:10:59.194Z,87810.47
2022-08-07T22:13:52.990Z,87809.34
2022-08-07T22:16:42.878Z,87812.38
2022-08-07T22:19:30.133Z,87817.38
2022-08-07T22:22:20.968Z,87820.03
2022-08-07T22:25:15.629Z,87820.09
2022-08-07T22:28:37.161Z,87819.34
2022-08-07T22:31:59.201Z,87817.81
2022-08-07T22:34:35.710Z,87818.19
2022-08-07T22:38:03.154Z,87818.56
2022-08-07T22:40:35.858Z,87821.66
2022-08-07T22:43:36.809Z,87822.41
2022-08-07T22:46:46.735Z,87819.75
2022-08-07T22:49:27.678Z,87820.91
2022-08-07T22:52:45.919Z,87823.97
2022-08-07T22:56:03.027Z,87820.94
2022-08-07T22:59:09.047Z,87826.25
2022-08-07T23:02:07.383Z,87817.91
2022-08-07T23:06:07.470Z,87812.25
2022-08-07T23:08:24.557Z,87809.56
2022-08-07T23:11:44.274Z,87814.91
2022-08-07T23:14:48.488Z,87812.66
2022-08-07T23:17:36.633Z,87814.91
2022-08-07T23:20:14.466Z,87817.97
2022-08-07T23:23:03.793Z,87819.81
2022-08-07T23:26:08.437Z,87822.91
2022-08-07T23:29:43.609Z,87813.03
2022-08-07T23:34:33.773Z,87822.91
2022-08-07T23:37:18.598Z,87826.41
2022-08-07T23:40:16.753Z,87810.09
2022-08-07T23:43:37.651Z,87816.19
2022-08-07T23:46:43.119Z,87813.16
2022-08-07T23:49:49.878Z,87822.66
2022-08-07T23:53:05.234Z,87818.84
2022-08-07T23:55:53.135Z,87815.78
2022-08-07T23:59:10.532Z,87814.66
